Time;durP1;ratioP1;P1;durP2;ratioP2;P2;SDS_P1;SDS_P2;PMS_P1;PMS_P2;Temp;Humidity;BMP_temperature;BMP_pressure;BME280_temperature;BME280_humidity;BME280_pressure;Samples;Min_cycle;Max_cycle;Signal;HPM_P1;HPM_P2
2022/11/23 00:02:00;;;;;;;42.53;27.25;;;4.60;99.90;;;;;;5054955;28;20225;-77
2022/11/23 00:04:27;;;;;;;44.75;26.63;;;4.60;99.90;;;;;;5053965;28;20403;-80
2022/11/23 00:06:54;;;;;;;42.45;26.52;;;4.60;99.90;;;;;;5044958;28;20229;-77
2022/11/23 00:09:22;;;;;;;45.08;28.10;;;4.60;99.90;;;;;;5046903;28;20240;-80
2022/11/23 00:11:51;;;;;;;44.28;27.98;;;4.60;99.90;;;;;;5050871;28;20309;-80
2022/11/23 00:14:18;;;;;;;46.65;25.88;;;4.70;99.90;;;;;;5044189;28;20229;-77
2022/11/23 00:16:45;;;;;;;40.35;25.95;;;4.60;99.90;;;;;;5054812;28;20228;-77
2022/11/23 00:19:12;;;;;;;47.70;28.60;;;4.60;99.90;;;;;;5053560;28;20326;-77
2022/11/23 00:21:39;;;;;;;46.47;28.48;;;4.60;99.90;;;;;;5053830;28;20224;-77
2022/11/23 00:24:06;;;;;;;40.92;26.45;;;4.70;99.90;;;;;;5055038;28;20244;-80
2022/11/23 00:26:33;;;;;;;45.28;28.10;;;4.70;99.90;;;;;;5053236;28;20245;-77
2022/11/23 00:29:02;;;;;;;42.80;25.67;;;4.70;99.90;;;;;;5054304;28;20221;-77
2022/11/23 00:31:29;;;;;;;40.00;25.17;;;4.70;99.90;;;;;;5053338;28;20237;-80
2022/11/23 00:33:57;;;;;;;40.72;26.35;;;4.80;99.90;;;;;;5053695;28;20225;-77
2022/11/23 00:36:26;;;;;;;35.58;26.35;;;4.80;99.90;;;;;;5053732;28;20294;-77
2022/11/23 00:38:54;;;;;;;38.97;26.17;;;4.80;99.90;;;;;;5025696;28;20233;-77
2022/11/23 00:41:24;;;;;;;43.03;23.88;;;4.80;99.90;;;;;;5046203;28;20304;-77
2022/11/23 00:43:51;;;;;;;40.22;25.02;;;4.80;99.90;;;;;;5050466;28;20247;-79
2022/11/23 00:46:21;;;;;;;41.28;26.52;;;4.80;99.90;;;;;;5050972;28;20228;-77
2022/11/23 00:48:50;;;;;;;43.67;26.38;;;4.80;99.90;;;;;;5051828;28;20225;-80
2022/11/23 00:51:19;;;;;;;43.15;26.25;;;4.80;99.90;;;;;;5051171;28;20328;-80
2022/11/23 00:53:47;;;;;;;42.45;27.52;;;4.90;99.90;;;;;;5051748;28;20610;-77
2022/11/23 00:56:15;;;;;;;36.83;25.52;;;4.90;99.90;;;;;;5050770;28;20217;-77
2022/11/23 00:58:42;;;;;;;43.17;27.25;;;4.90;99.90;;;;;;5050619;28;20237;-76
2022/11/23 01:01:12;;;;;;;42.13;26.55;;;4.90;99.90;;;;;;5049380;28;20280;-77
2022/11/23 01:03:42;;;;;;;35.38;24.15;;;4.90;99.90;;;;;;5050328;28;20232;-76
2022/11/23 01:06:11;;;;;;;38.42;26.35;;;4.90;99.90;;;;;;5051456;28;20310;-81
2022/11/23 01:08:38;;;;;;;43.17;25.88;;;4.90;99.90;;;;;;5045032;28;20274;-80
2022/11/23 01:11:08;;;;;;;42.92;26.77;;;4.90;99.90;;;;;;5038105;28;20294;-80
2022/11/23 01:13:35;;;;;;;37.03;23.90;;;4.80;99.90;;;;;;5041557;28;20251;-78
2022/11/23 01:16:03;;;;;;;42.72;25.67;;;4.90;99.90;;;;;;5062891;28;20224;-77
2022/11/23 01:18:30;;;;;;;38.70;23.88;;;4.80;99.90;;;;;;5053154;28;20239;-77
2022/11/23 01:21:01;;;;;;;39.67;25.42;;;4.80;99.90;;;;;;5052540;28;20678;-81
2022/11/23 01:23:28;;;;;;;40.78;27.55;;;4.80;99.90;;;;;;5053191;28;20307;-81
2022/11/23 01:25:56;;;;;;;43.17;27.08;;;4.70;99.90;;;;;;5053326;28;20220;-80
2022/11/23 01:28:22;;;;;;;42.70;26.85;;;4.80;99.90;;;;;;5052342;28;20228;-80
2022/11/23 01:30:50;;;;;;;42.05;25.08;;;4.80;99.90;;;;;;5053071;28;20252;-77
2022/11/23 01:33:17;;;;;;;46.95;27.88;;;4.80;99.90;;;;;;5052668;28;20256;-80
2022/11/23 01:35:44;;;;;;;43.53;24.38;;;4.70;99.90;;;;;;5051893;28;20221;-77
2022/11/23 01:38:12;;;;;;;40.10;25.52;;;4.70;99.90;;;;;;5051765;28;20260;-77
2022/11/23 01:40:43;;;;;;;35.75;25.00;;;4.70;99.90;;;;;;5051437;28;20612;-78
2022/11/23 01:43:15;;;;;;;41.63;24.35;;;4.70;99.90;;;;;;5053906;28;20239;-77
2022/11/23 01:45:44;;;;;;;41.03;25.95;;;4.80;99.90;;;;;;5053622;28;20267;-81
2022/11/23 01:48:16;;;;;;;37.85;25.77;;;4.70;99.90;;;;;;5054004;28;20225;-81
2022/11/23 01:50:46;;;;;;;40.95;25.92;;;4.80;99.90;;;;;;5053284;28;20311;-81
2022/11/23 01:53:16;;;;;;;37.17;24.83;;;4.80;99.90;;;;;;5053005;28;20233;-81
2022/11/23 01:55:43;;;;;;;37.53;24.10;;;4.90;99.90;;;;;;5052793;28;20260;-77
2022/11/23 01:58:12;;;;;;;38.88;25.13;;;4.80;99.90;;;;;;5053291;28;20235;-80
2022/11/23 02:00:39;;;;;;;38.60;26.45;;;4.80;99.90;;;;;;5052788;28;20229;-77
2022/11/23 02:03:09;;;;;;;37.40;24.33;;;4.80;99.90;;;;;;5052861;28;20224;-80
2022/11/23 02:05:42;;;;;;;40.22;26.42;;;4.80;99.90;;;;;;5044131;28;20251;-77
2022/11/23 02:08:11;;;;;;;36.67;24.63;;;4.80;99.90;;;;;;5053108;28;20232;-78
2022/11/23 02:10:40;;;;;;;37.78;23.90;;;4.80;99.90;;;;;;5052676;28;20256;-77
2022/11/23 02:13:11;;;;;;;35.08;23.48;;;4.90;99.90;;;;;;5053147;28;20590;-77
2022/11/23 02:15:38;;;;;;;39.20;24.40;;;4.90;99.90;;;;;;5052657;28;20224;-77
2022/11/23 02:18:19;;;;;;;33.70;24.60;;;5.00;99.90;;;;;;5053586;28;20224;-80
2022/11/23 02:20:46;;;;;;;36.28;23.55;;;5.10;99.90;;;;;;5052375;28;20243;-77
2022/11/23 02:23:25;;;;;;;34.67;23.55;;;5.10;99.90;;;;;;5052931;28;20231;-78
2022/11/23 02:26:00;;;;;;;42.50;25.48;;;5.10;99.90;;;;;;5032852;28;20217;-77
2022/11/23 02:28:32;;;;;;;36.75;23.77;;;5.20;99.90;;;;;;5041335;28;20243;-80
2022/11/23 02:31:00;;;;;;;31.48;23.20;;;5.10;99.90;;;;;;5052743;28;20303;-77
2022/11/23 02:33:27;;;;;;;33.38;24.13;;;5.20;99.90;;;;;;5053213;28;20220;-77
2022/11/23 02:35:56;;;;;;;32.75;21.50;;;5.20;99.90;;;;;;5052432;28;20590;-77
2022/11/23 02:38:26;;;;;;;36.58;23.05;;;5.30;99.90;;;;;;5053090;28;20278;-81
2022/11/23 02:40:53;;;;;;;33.30;24.17;;;5.20;99.90;;;;;;5052768;28;20333;-80
2022/11/23 02:43:21;;;;;;;32.92;23.27;;;5.20;99.90;;;;;;5053099;28;20224;-77
2022/11/23 02:45:53;;;;;;;37.05;23.83;;;5.10;99.90;;;;;;5052539;28;20225;-76
2022/11/23 02:48:20;;;;;;;35.65;23.10;;;5.20;99.90;;;;;;5053145;28;20228;-80
2022/11/23 02:50:47;;;;;;;37.30;22.75;;;5.20;99.90;;;;;;5052131;28;20243;-80
2022/11/23 02:53:15;;;;;;;33.80;24.60;;;5.20;99.90;;;;;;5053362;28;20228;-80
2022/11/23 02:55:41;;;;;;;41.53;25.95;;;5.20;99.90;;;;;;5052553;28;20220;-80
2022/11/23 02:58:09;;;;;;;33.70;22.95;;;5.20;99.90;;;;;;5054659;28;20273;-77
2022/11/23 03:00:37;;;;;;;37.90;24.70;;;5.30;99.90;;;;;;5056849;28;20259;-77
2022/11/23 03:03:04;;;;;;;32.92;22.98;;;5.20;99.90;;;;;;5056537;28;20248;-77
2022/11/23 03:05:31;;;;;;;35.28;22.75;;;5.30;99.90;;;;;;5056749;28;20225;-77
2022/11/23 03:07:59;;;;;;;34.72;24.10;;;5.30;99.90;;;;;;5056267;28;20228;-76
2022/11/23 03:10:26;;;;;;;34.20;23.42;;;5.30;99.90;;;;;;5056520;28;20236;-77
2022/11/23 03:12:55;;;;;;;35.92;23.52;;;5.30;99.90;;;;;;5056073;28;20224;-77
2022/11/23 03:15:23;;;;;;;32.35;22.75;;;5.30;99.90;;;;;;5055073;28;20235;-77
2022/11/23 03:17:51;;;;;;;37.47;24.38;;;5.30;99.90;;;;;;5056325;28;20225;-77
2022/11/23 03:20:18;;;;;;;36.80;24.23;;;5.40;99.90;;;;;;5056710;28;20320;-77
2022/11/23 03:22:46;;;;;;;33.50;22.50;;;5.40;99.90;;;;;;5055568;28;20259;-77
2022/11/23 03:25:14;;;;;;;33.22;21.40;;;5.40;99.90;;;;;;5056586;28;20302;-80
2022/11/23 03:27:41;;;;;;;31.30;21.95;;;5.40;99.90;;;;;;5056718;28;20232;-77
2022/11/23 03:30:09;;;;;;;33.45;23.05;;;5.40;99.90;;;;;;5056112;28;20271;-77
2022/11/23 03:32:37;;;;;;;35.08;23.05;;;5.30;99.90;;;;;;5056093;28;20228;-78
2022/11/23 03:35:06;;;;;;;38.15;24.88;;;5.30;99.90;;;;;;5055665;28;20543;-81
2022/11/23 03:37:33;;;;;;;38.72;24.30;;;5.20;99.90;;;;;;5056702;28;20304;-80
2022/11/23 03:40:00;;;;;;;32.47;23.10;;;5.20;99.90;;;;;;5055449;28;20343;-80
2022/11/23 03:42:28;;;;;;;34.28;23.23;;;5.20;99.90;;;;;;5056457;28;20238;-80
2022/11/23 03:44:55;;;;;;;38.30;24.80;;;5.20;99.90;;;;;;5054846;28;20235;-77
2022/11/23 03:47:22;;;;;;;33.83;23.98;;;5.10;99.90;;;;;;5055942;28;20317;-77
2022/11/23 03:49:49;;;;;;;33.20;23.45;;;5.10;99.90;;;;;;5055259;28;20239;-81
2022/11/23 03:52:17;;;;;;;32.78;22.60;;;5.10;99.90;;;;;;5055780;28;20248;-81
2022/11/23 03:54:45;;;;;;;34.83;21.80;;;5.00;99.90;;;;;;5056122;28;20225;-81
2022/11/23 03:57:14;;;;;;;33.75;22.67;;;5.00;99.90;;;;;;5055430;28;20224;-81
2022/11/23 03:59:41;;;;;;;32.38;23.30;;;5.00;99.90;;;;;;5055624;28;20225;-81
2022/11/23 04:02:11;;;;;;;35.22;24.52;;;5.00;99.90;;;;;;5054904;28;20740;-80
2022/11/23 04:04:48;;;;;;;34.33;23.55;;;5.00;99.90;;;;;;5055776;28;20282;-77
2022/11/23 04:07:17;;;;;;;33.05;22.95;;;4.90;99.90;;;;;;5054903;28;20588;-80
2022/11/23 04:09:46;;;;;;;42.97;24.23;;;4.90;99.90;;;;;;5054119;28;20247;-81
2022/11/23 04:12:14;;;;;;;38.17;22.98;;;4.90;99.90;;;;;;5054944;28;20221;-80
2022/11/23 04:14:41;;;;;;;33.42;23.20;;;4.90;99.90;;;;;;5055908;28;20217;-80
2022/11/23 04:17:08;;;;;;;34.67;23.38;;;4.90;99.90;;;;;;5054865;28;20311;-77
2022/11/23 04:19:35;;;;;;;33.30;22.65;;;4.80;99.90;;;;;;5055246;28;20614;-81
2022/11/23 04:22:02;;;;;;;34.83;23.77;;;4.80;99.90;;;;;;5054627;28;20220;-80
2022/11/23 04:24:30;;;;;;;31.25;22.20;;;4.80;99.90;;;;;;5055617;28;20688;-80
2022/11/23 04:26:57;;;;;;;32.55;23.08;;;4.80;99.90;;;;;;5054591;28;20229;-80
2022/11/23 04:29:24;;;;;;;36.33;22.80;;;4.80;99.90;;;;;;5055310;28;20240;-77
2022/11/23 04:31:51;;;;;;;32.45;22.58;;;4.80;99.90;;;;;;5055490;28;20216;-77
2022/11/23 04:34:19;;;;;;;29.27;20.90;;;4.90;99.90;;;;;;5054268;28;20224;-77
2022/11/23 04:36:46;;;;;;;36.50;24.35;;;4.80;99.90;;;;;;5055253;28;20522;-77
2022/11/23 04:39:13;;;;;;;29.60;21.45;;;4.80;99.90;;;;;;5053929;28;20248;-76
2022/11/23 04:41:42;;;;;;;32.78;23.80;;;4.80;99.90;;;;;;5054914;28;20229;-77
2022/11/23 04:44:09;;;;;;;35.67;22.58;;;4.80;99.90;;;;;;5054388;28;20639;-77
2022/11/23 04:46:36;;;;;;;34.92;22.33;;;4.80;99.90;;;;;;5054580;28;20732;-77
2022/11/23 04:49:04;;;;;;;37.90;23.98;;;4.80;99.90;;;;;;5053877;28;20239;-80
2022/11/23 04:51:31;;;;;;;34.22;22.27;;;4.80;99.90;;;;;;5054560;28;20286;-80
2022/11/23 04:53:58;;;;;;;37.85;22.58;;;4.90;99.90;;;;;;5054344;28;20255;-80
2022/11/23 04:56:26;;;;;;;33.72;23.23;;;4.80;99.90;;;;;;5054662;28;20232;-77
2022/11/23 04:58:55;;;;;;;31.83;23.70;;;4.80;99.90;;;;;;5054785;28;20248;-77
2022/11/23 05:01:22;;;;;;;35.50;23.00;;;4.70;99.90;;;;;;5053889;28;20225;-77
2022/11/23 05:03:51;;;;;;;34.78;23.30;;;4.70;99.90;;;;;;5054646;28;20280;-77
2022/11/23 05:06:18;;;;;;;35.00;23.05;;;4.70;99.90;;;;;;5053665;28;21655;-81
2022/11/23 05:08:45;;;;;;;33.22;22.42;;;4.70;99.90;;;;;;5054281;28;20317;-80
2022/11/23 05:11:12;;;;;;;38.05;25.75;;;4.70;99.90;;;;;;5052796;28;20228;-80
2022/11/23 05:13:39;;;;;;;41.28;26.48;;;4.70;99.90;;;;;;5054744;28;20213;-80
2022/11/23 05:16:08;;;;;;;38.35;27.58;;;4.70;99.90;;;;;;5053775;28;20225;-80
2022/11/23 05:18:35;;;;;;;35.78;23.83;;;4.80;99.90;;;;;;5054636;28;20228;-77
2022/11/23 05:21:02;;;;;;;34.75;25.52;;;4.80;99.90;;;;;;5053596;28;20240;-77
2022/11/23 05:23:31;;;;;;;34.00;26.50;;;4.80;99.90;;;;;;5054437;28;20285;-77
2022/11/23 05:25:58;;;;;;;42.00;28.30;;;4.80;99.90;;;;;;5054470;28;20224;-81
2022/11/23 05:28:25;;;;;;;42.80;27.92;;;4.80;99.90;;;;;;5053790;28;20216;-80
2022/11/23 05:30:55;;;;;;;36.35;25.52;;;4.80;99.90;;;;;;5053443;28;20228;-77
2022/11/23 05:33:24;;;;;;;36.88;26.85;;;4.80;99.90;;;;;;5051918;28;20605;-77
2022/11/23 05:35:51;;;;;;;39.38;25.40;;;4.80;99.90;;;;;;5054462;28;20221;-80
2022/11/23 05:38:18;;;;;;;39.08;27.20;;;4.70;99.90;;;;;;5053540;28;20232;-80
2022/11/23 05:40:46;;;;;;;32.78;23.63;;;4.80;99.90;;;;;;5053560;28;20224;-80
2022/11/23 05:43:13;;;;;;;32.75;23.58;;;4.70;99.90;;;;;;5053438;28;20278;-80
2022/11/23 05:45:40;;;;;;;35.28;23.33;;;4.70;99.90;;;;;;5052761;28;20221;-80
2022/11/23 05:48:07;;;;;;;41.30;23.55;;;4.70;99.90;;;;;;5052985;28;20221;-80
2022/11/23 05:50:35;;;;;;;30.10;22.33;;;4.70;99.90;;;;;;5053765;28;20259;-80
2022/11/23 05:53:03;;;;;;;32.30;21.98;;;4.70;99.90;;;;;;5052907;28;20308;-77
2022/11/23 05:55:29;;;;;;;37.42;24.20;;;4.70;99.90;;;;;;5052662;28;20221;-81
2022/11/23 05:57:57;;;;;;;29.30;20.77;;;4.80;99.90;;;;;;5053911;28;20670;-77
2022/11/23 06:00:25;;;;;;;33.03;21.80;;;4.80;99.90;;;;;;5053693;28;20225;-77
2022/11/23 06:02:52;;;;;;;31.73;22.23;;;4.80;99.90;;;;;;5054775;28;20239;-81
2022/11/23 06:05:19;;;;;;;30.75;20.45;;;4.80;99.90;;;;;;5052390;28;20228;-81
2022/11/23 06:07:52;;;;;;;29.88;20.88;;;4.90;99.90;;;;;;5054429;28;20589;-81
2022/11/23 06:10:20;;;;;;;30.73;20.02;;;4.80;99.90;;;;;;5053748;28;20243;-82
2022/11/23 06:12:48;;;;;;;30.13;22.20;;;4.90;99.90;;;;;;5054170;28;20597;-80
2022/11/23 06:15:16;;;;;;;29.08;21.20;;;4.90;99.90;;;;;;5053280;28;20290;-80
2022/11/23 06:17:43;;;;;;;29.77;19.45;;;4.90;99.90;;;;;;5053438;28;20221;-79
2022/11/23 06:20:11;;;;;;;28.27;20.15;;;5.00;99.90;;;;;;5053002;28;20224;-82
2022/11/23 06:22:38;;;;;;;29.15;19.63;;;5.00;99.90;;;;;;5053679;28;20359;-79
2022/11/23 06:25:07;;;;;;;30.92;21.25;;;5.00;99.90;;;;;;5053328;28;20232;-76
2022/11/23 06:27:34;;;;;;;28.08;19.67;;;5.00;99.90;;;;;;5053168;28;20221;-80
2022/11/23 06:30:01;;;;;;;26.67;18.92;;;5.00;99.90;;;;;;5052951;28;20685;-77
2022/11/23 06:32:28;;;;;;;28.48;20.80;;;5.00;99.90;;;;;;5051950;28;20225;-77
2022/11/23 06:34:55;;;;;;;31.63;20.85;;;5.00;99.90;;;;;;5053481;28;20565;-80
2022/11/23 06:37:22;;;;;;;30.88;19.98;;;5.00;99.90;;;;;;5044005;28;20228;-80
2022/11/23 06:39:49;;;;;;;35.60;22.80;;;5.10;99.90;;;;;;5053019;28;20255;-79
2022/11/23 06:42:17;;;;;;;40.67;25.52;;;5.10;99.90;;;;;;5052748;28;20228;-79
2022/11/23 06:44:44;;;;;;;33.78;21.45;;;5.10;99.90;;;;;;5052752;28;20225;-79
2022/11/23 06:47:15;;;;;;;29.38;19.95;;;5.10;99.90;;;;;;5053083;28;20313;-80
2022/11/23 06:49:41;;;;;;;33.63;22.20;;;5.10;99.90;;;;;;5052451;28;20224;-79
2022/11/23 06:52:15;;;;;;;30.88;21.17;;;5.00;99.90;;;;;;5052603;28;20299;-76
2022/11/23 06:54:42;;;;;;;33.85;23.02;;;5.10;99.90;;;;;;5052440;28;20247;-80
2022/11/23 06:57:09;;;;;;;32.80;21.48;;;5.00;99.90;;;;;;5052844;28;20307;-81
2022/11/23 06:59:38;;;;;;;32.60;20.75;;;5.10;99.90;;;;;;5052470;28;20276;-81
2022/11/23 07:02:05;;;;;;;32.42;20.60;;;5.10;99.90;;;;;;5052899;28;20262;-77
2022/11/23 07:04:32;;;;;;;31.42;20.98;;;5.10;99.90;;;;;;5052397;28;20616;-78
2022/11/23 07:06:59;;;;;;;33.40;21.85;;;5.10;99.90;;;;;;5052948;28;20224;-81
2022/11/23 07:09:26;;;;;;;29.42;21.35;;;5.10;99.90;;;;;;5051797;28;20608;-80
2022/11/23 07:11:53;;;;;;;32.05;19.02;;;5.10;99.90;;;;;;5053050;28;20568;-81
2022/11/23 07:14:20;;;;;;;31.63;22.13;;;5.10;99.90;;;;;;5053206;28;20632;-81
2022/11/23 07:16:49;;;;;;;30.40;20.60;;;5.00;99.90;;;;;;5051791;28;20589;-80
2022/11/23 07:19:16;;;;;;;30.35;21.88;;;5.10;99.90;;;;;;5052740;28;20240;-80
2022/11/23 07:21:43;;;;;;;25.88;18.80;;;5.10;99.90;;;;;;5052399;28;20713;-77
2022/11/23 07:24:10;;;;;;;30.60;22.13;;;5.00;99.90;;;;;;5043078;28;20236;-77
2022/11/23 07:26:37;;;;;;;32.05;21.67;;;5.00;99.90;;;;;;5051280;28;20670;-77
2022/11/23 07:29:05;;;;;;;24.98;19.63;;;5.00;99.90;;;;;;5052534;28;20236;-76
2022/11/23 07:31:32;;;;;;;29.48;21.05;;;5.00;99.90;;;;;;5052935;28;20625;-78
2022/11/23 07:34:00;;;;;;;34.70;23.05;;;5.00;99.90;;;;;;5042085;28;20299;-79
2022/11/23 07:36:27;;;;;;;29.40;19.92;;;5.00;99.90;;;;;;5052656;28;20346;-77
2022/11/23 07:38:54;;;;;;;29.10;21.00;;;5.00;99.90;;;;;;5051609;28;20267;-77
2022/11/23 07:41:21;;;;;;;28.55;20.08;;;5.00;99.90;;;;;;5051928;28;20225;-80
2022/11/23 07:43:49;;;;;;;27.70;20.65;;;5.00;99.90;;;;;;5053497;28;20240;-82
2022/11/23 07:46:16;;;;;;;35.35;23.15;;;4.90;99.90;;;;;;5056480;28;20327;-77
2022/11/23 07:48:43;;;;;;;27.77;20.75;;;4.90;99.90;;;;;;5055319;28;20229;-81
2022/11/23 07:51:11;;;;;;;30.98;22.50;;;4.90;99.90;;;;;;5055961;28;20263;-81
2022/11/23 07:53:38;;;;;;;31.70;20.65;;;4.90;99.90;;;;;;5046893;28;20618;-80
2022/11/23 07:56:06;;;;;;;32.50;20.10;;;4.90;99.90;;;;;;5056309;28;20217;-77
2022/11/23 07:58:33;;;;;;;32.97;22.90;;;4.90;99.90;;;;;;5055605;28;20248;-80
2022/11/23 08:01:04;;;;;;;28.60;21.95;;;4.90;99.90;;;;;;5054120;28;20227;-80
2022/11/23 08:03:32;;;;;;;29.90;21.42;;;4.80;99.90;;;;;;5056037;28;20221;-80
2022/11/23 08:06:00;;;;;;;29.85;20.20;;;4.80;99.90;;;;;;5054138;28;20228;-76
2022/11/23 08:08:34;;;;;;;37.33;24.55;;;4.80;99.90;;;;;;5055970;28;20581;-77
2022/11/23 08:11:01;;;;;;;36.58;21.33;;;4.80;99.90;;;;;;5055066;28;20248;-81
2022/11/23 08:13:28;;;;;;;32.33;22.02;;;4.80;99.90;;;;;;5054554;28;20228;-80
2022/11/23 08:15:59;;;;;;;32.53;22.48;;;4.80;99.90;;;;;;5045205;28;20234;-77
2022/11/23 08:18:27;;;;;;;30.98;22.42;;;4.80;99.90;;;;;;5044250;28;20228;-77
2022/11/23 08:20:54;;;;;;;28.42;21.02;;;4.90;99.90;;;;;;5054420;28;20228;-78
2022/11/23 08:23:21;;;;;;;29.63;21.83;;;5.00;99.90;;;;;;5055443;28;20225;-77
2022/11/23 08:25:58;;;;;;;31.83;20.58;;;5.00;99.90;;;;;;5055130;28;20221;-77
2022/11/23 08:28:24;;;;;;;26.95;20.95;;;5.10;99.90;;;;;;5048385;28;20624;-78
2022/11/23 08:30:52;;;;;;;35.15;21.65;;;5.20;99.90;;;;;;5054673;28;20270;-81
2022/11/23 08:33:18;;;;;;;30.55;20.75;;;5.10;99.90;;;;;;5055494;28;20699;-78
2022/11/23 08:35:46;;;;;;;30.40;22.25;;;5.10;99.90;;;;;;5055359;28;20228;-81
2022/11/23 08:38:14;;;;;;;30.35;20.58;;;5.20;99.90;;;;;;5055629;28;20225;-78
2022/11/23 08:40:41;;;;;;;28.30;21.20;;;5.20;99.90;;;;;;5054998;28;20701;-80
2022/11/23 08:43:18;;;;;;;32.38;21.52;;;5.30;99.90;;;;;;5045281;28;20220;-78
2022/11/23 08:45:45;;;;;;;35.53;23.20;;;5.30;99.90;;;;;;5054922;28;20220;-81
2022/11/23 08:48:12;;;;;;;32.58;22.48;;;5.30;99.90;;;;;;5056124;28;20228;-78
2022/11/23 08:50:39;;;;;;;32.47;21.48;;;5.40;99.90;;;;;;5055376;28;20224;-81
2022/11/23 08:53:06;;;;;;;30.83;21.95;;;5.40;99.90;;;;;;5055062;28;20226;-78
2022/11/23 08:55:33;;;;;;;29.20;20.48;;;5.50;99.90;;;;;;5053860;28;20243;-81
2022/11/23 08:58:00;;;;;;;28.30;20.42;;;5.40;99.90;;;;;;5054293;28;20272;-81
2022/11/23 09:00:29;;;;;;;32.83;22.80;;;5.40;99.90;;;;;;5054657;28;20674;-81
2022/11/23 09:02:57;;;;;;;33.65;20.80;;;5.50;99.90;;;;;;5053943;28;20260;-78
2022/11/23 09:05:24;;;;;;;28.13;20.17;;;5.50;99.90;;;;;;5054780;28;20228;-77
2022/11/23 09:07:54;;;;;;;25.92;18.23;;;5.50;99.90;;;;;;5054100;28;20232;-81
2022/11/23 09:10:21;;;;;;;27.25;19.88;;;5.60;99.90;;;;;;5054217;28;20275;-77
2022/11/23 09:12:48;;;;;;;27.38;18.50;;;5.70;99.90;;;;;;5054093;28;20263;-78
2022/11/23 09:15:16;;;;;;;28.67;19.27;;;5.70;99.90;;;;;;5044061;28;20249;-81
2022/11/23 09:17:47;;;;;;;28.65;20.55;;;5.80;99.90;;;;;;5054050;28;20248;-81
2022/11/23 09:20:15;;;;;;;30.05;22.08;;;5.80;99.90;;;;;;5054474;28;20232;-81
2022/11/23 09:22:42;;;;;;;22.63;19.30;;;5.90;99.90;;;;;;5054132;28;20232;-81
2022/11/23 09:25:10;;;;;;;29.98;19.52;;;6.00;99.90;;;;;;5050867;28;20720;-81
2022/11/23 09:27:37;;;;;;;32.47;21.25;;;5.90;99.90;;;;;;5054180;28;20304;-81
2022/11/23 09:30:05;;;;;;;28.83;22.73;;;5.90;99.90;;;;;;5052960;28;20221;-78
2022/11/23 09:32:35;;;;;;;30.00;19.60;;;5.90;99.90;;;;;;5054580;28;20621;-78
2022/11/23 09:35:04;;;;;;;31.15;22.50;;;5.90;99.90;;;;;;5053847;28;20225;-81
2022/11/23 09:37:32;;;;;;;27.05;19.25;;;5.80;99.90;;;;;;5053740;28;20225;-82
2022/11/23 09:39:59;;;;;;;28.20;20.02;;;5.90;99.90;;;;;;5053201;28;20255;-76
2022/11/23 09:42:54;;;;;;;25.67;18.80;;;6.00;99.90;;;;;;5053794;28;20229;-76
2022/11/23 09:45:30;;;;;;;28.08;18.70;;;6.00;99.90;;;;;;5054547;28;20220;-78
2022/11/23 09:48:21;;;;;;;24.85;18.10;;;6.00;99.90;;;;;;5054784;28;20300;-78
2022/11/23 09:50:54;;;;;;;22.70;17.85;;;6.10;99.90;;;;;;5053927;28;20294;-80
2022/11/23 09:53:24;;;;;;;27.42;19.95;;;6.10;99.90;;;;;;5054095;28;20225;-76
2022/11/23 09:55:54;;;;;;;31.83;21.33;;;6.20;99.90;;;;;;5052766;28;20259;-78
2022/11/23 09:58:23;;;;;;;28.48;20.35;;;6.20;99.90;;;;;;5044775;28;20647;-80
2022/11/23 10:01:00;;;;;;;30.17;19.38;;;6.20;99.90;;;;;;5035768;28;20591;-80
2022/11/23 10:03:29;;;;;;;30.23;19.63;;;6.30;99.90;;;;;;5052747;28;20568;-80
2022/11/23 10:06:04;;;;;;;28.73;19.75;;;6.30;99.90;;;;;;5052554;28;20697;-80
2022/11/23 10:08:43;;;;;;;26.65;18.50;;;6.30;99.90;;;;;;5052263;28;20238;-80
2022/11/23 10:11:28;;;;;;;26.42;19.65;;;6.30;99.90;;;;;;5052881;28;20220;-77
2022/11/23 10:14:06;;;;;;;31.27;18.60;;;6.40;99.90;;;;;;5053470;28;20556;-78
2022/11/23 10:16:40;;;;;;;26.25;18.42;;;6.40;99.90;;;;;;5053183;28;20225;-76
2022/11/23 10:19:20;;;;;;;30.65;20.92;;;6.40;99.90;;;;;;5052948;28;20229;-80
2022/11/23 10:21:55;;;;;;;24.80;18.45;;;6.40;99.90;;;;;;5052408;28;20235;-81
2022/11/23 10:24:28;;;;;;;25.73;19.13;;;6.40;99.90;;;;;;5053188;28;20308;-78
2022/11/23 10:26:57;;;;;;;26.90;18.75;;;6.50;99.90;;;;;;5052673;28;20285;-78
2022/11/23 10:29:29;;;;;;;30.33;18.50;;;6.60;99.90;;;;;;5053232;28;20224;-78
2022/11/23 10:31:58;;;;;;;23.95;19.00;;;6.60;99.90;;;;;;5052665;28;20244;-78
2022/11/23 10:34:44;;;;;;;25.38;18.00;;;6.60;99.90;;;;;;5053045;28;20240;-81
2022/11/23 10:37:14;;;;;;;27.08;18.45;;;6.70;99.90;;;;;;5053800;28;20258;-81
2022/11/23 10:39:47;;;;;;;24.90;18.92;;;6.70;99.90;;;;;;5053055;28;20263;-81
2022/11/23 10:42:23;;;;;;;23.45;18.10;;;6.80;99.90;;;;;;5052873;28;20251;-77
2022/11/23 10:44:53;;;;;;;26.23;19.40;;;6.80;99.90;;;;;;5052579;28;20334;-77
2022/11/23 10:47:41;;;;;;;26.45;17.50;;;6.80;99.90;;;;;;5053215;28;20678;-76
2022/11/23 10:50:24;;;;;;;26.25;18.17;;;6.90;99.90;;;;;;5053064;28;20236;-81
2022/11/23 10:52:55;;;;;;;24.13;18.88;;;7.00;99.90;;;;;;5053393;28;20235;-77
2022/11/23 10:55:27;;;;;;;24.40;19.10;;;7.00;99.90;;;;;;5044140;28;20646;-80
2022/11/23 10:57:55;;;;;;;25.50;18.00;;;7.10;99.90;;;;;;5052897;28;20220;-77
2022/11/23 11:00:25;;;;;;;21.17;17.50;;;7.10;99.90;;;;;;5052544;28;20294;-77
2022/11/23 11:02:54;;;;;;;24.00;16.83;;;7.10;99.90;;;;;;5042159;28;20224;-77
2022/11/23 11:05:28;;;;;;;30.27;17.63;;;7.10;99.90;;;;;;5052549;28;20236;-77
2022/11/23 11:08:00;;;;;;;22.88;17.52;;;7.20;99.90;;;;;;5052590;28;20220;-77
2022/11/23 11:10:39;;;;;;;24.23;17.83;;;7.30;99.90;;;;;;5050999;28;20323;-77
2022/11/23 11:13:30;;;;;;;22.48;17.23;;;7.30;99.90;;;;;;5053231;28;20620;-77
2022/11/23 11:16:02;;;;;;;18.73;15.93;;;7.40;99.90;;;;;;5052702;28;20212;-80
2022/11/23 11:18:32;;;;;;;20.08;16.00;;;7.40;99.90;;;;;;5053025;28;20278;-81
2022/11/23 11:21:02;;;;;;;25.90;17.65;;;7.50;99.90;;;;;;5055841;28;20220;-77
2022/11/23 11:23:34;;;;;;;22.88;16.30;;;7.60;99.90;;;;;;5045370;28;20681;-78
2022/11/23 11:26:08;;;;;;;24.48;19.30;;;7.70;99.90;;;;;;5056472;28;20235;-79
2022/11/23 11:28:40;;;;;;;27.00;18.25;;;7.70;99.90;;;;;;5056197;28;20213;-77
2022/11/23 11:31:25;;;;;;;22.77;18.50;;;7.70;99.90;;;;;;5056206;28;20255;-77
2022/11/23 11:33:57;;;;;;;23.23;17.73;;;7.80;99.90;;;;;;5056654;28;20270;-78
2022/11/23 11:36:26;;;;;;;24.90;18.10;;;7.80;99.90;;;;;;5048033;28;20221;-76
2022/11/23 11:38:58;;;;;;;22.65;18.48;;;7.70;99.90;;;;;;5057294;28;20631;-80
2022/11/23 11:41:27;;;;;;;25.90;17.40;;;7.80;99.90;;;;;;5055848;28;20227;-80
2022/11/23 11:44:05;;;;;;;25.15;18.90;;;7.70;99.90;;;;;;5046124;28;20278;-80
2022/11/23 11:46:48;;;;;;;22.05;17.25;;;7.80;99.90;;;;;;5050985;28;20229;-81
2022/11/23 11:49:24;;;;;;;22.65;16.58;;;7.90;99.90;;;;;;5147537;22;20228;-80
2022/11/23 11:51:56;;;;;;;23.05;17.05;;;7.90;99.90;;;;;;5056310;28;20670;-81
2022/11/23 11:54:29;;;;;;;22.73;17.20;;;8.00;99.90;;;;;;5056128;28;20285;-81
2022/11/23 11:57:03;;;;;;;22.40;17.83;;;8.10;99.90;;;;;;5036384;28;20291;-81
2022/11/23 11:59:41;;;;;;;22.65;16.58;;;8.10;99.90;;;;;;5036132;28;20225;-78
2022/11/23 12:02:22;;;;;;;21.88;18.58;;;8.10;99.90;;;;;;5035953;28;20225;-81
2022/11/23 12:04:57;;;;;;;17.52;15.07;;;8.20;99.90;;;;;;5051252;28;20607;-81
2022/11/23 12:07:29;;;;;;;25.98;18.00;;;8.30;99.90;;;;;;5056126;28;20216;-78
2022/11/23 12:10:05;;;;;;;22.90;16.90;;;8.40;99.90;;;;;;5060145;28;20628;-81
2022/11/23 12:12:35;;;;;;;21.58;15.90;;;8.50;99.90;;;;;;5055848;28;20220;-81
2022/11/23 12:15:03;;;;;;;22.98;16.65;;;8.60;99.90;;;;;;5050073;28;20216;-82
2022/11/23 12:17:56;;;;;;;20.17;15.02;;;8.60;99.90;;;;;;5064588;28;20216;-78
2022/11/23 12:20:31;;;;;;;21.92;16.38;;;8.70;99.90;;;;;;5053619;28;20232;-78
2022/11/23 12:23:12;;;;;;;22.63;16.67;;;8.70;99.90;;;;;;5054610;28;20686;-79
2022/11/23 12:25:59;;;;;;;17.67;15.57;;;8.80;99.90;;;;;;5053702;28;20225;-81
2022/11/23 12:28:42;;;;;;;21.85;15.38;;;8.80;99.90;;;;;;5053999;28;20221;-78
2022/11/23 12:31:24;;;;;;;19.70;15.45;;;8.80;99.90;;;;;;5053915;28;20228;-78
2022/11/23 12:34:17;;;;;;;21.30;16.05;;;8.80;99.90;;;;;;5055993;28;20224;-80
2022/11/23 12:36:55;;;;;;;23.00;16.42;;;8.80;99.90;;;;;;5056425;28;20703;-80
2022/11/23 12:39:42;;;;;;;20.85;17.63;;;8.80;99.90;;;;;;5055433;28;20251;-81
2022/11/23 12:42:21;;;;;;;21.25;15.35;;;8.80;99.90;;;;;;5055506;28;20263;-81
2022/11/23 12:45:00;;;;;;;20.38;15.43;;;8.90;99.90;;;;;;5053039;28;20273;-77
2022/11/23 12:47:37;;;;;;;20.92;15.13;;;8.80;99.90;;;;;;5060795;28;20228;-80
2022/11/23 12:50:17;;;;;;;25.95;18.20;;;8.90;99.90;;;;;;5054227;28;20229;-80